createdAt,value
2018-05-26T00:01:06.280Z,75.90
2018-05-26T00:04:09.508Z,75.40
2018-05-26T00:07:11.975Z,75.40
2018-05-26T00:10:14.425Z,75.50
2018-05-26T00:13:17.654Z,74.20
2018-05-26T00:16:20.106Z,74.10
2018-05-26T00:19:23.334Z,73.70
2018-05-26T00:22:25.806Z,73.70
2018-05-26T00:25:28.280Z,72.70
2018-05-26T00:28:30.733Z,71.70
2018-05-26T00:31:33.190Z,71.30
2018-05-26T00:34:36.438Z,70.90
2018-05-26T00:37:38.899Z,70.80
2018-05-26T00:40:41.349Z,70.80
2018-05-26T00:43:44.577Z,70.40
2018-05-26T00:46:47.034Z,70.40
2018-05-26T00:49:49.505Z,70.10
2018-05-26T00:52:52.732Z,69.40
2018-05-26T00:55:55.189Z,69.40
2018-05-26T00:58:57.654Z,68.60
2018-05-26T01:02:00.109Z,68.60
2018-05-26T01:05:02.565Z,68.60
2018-05-26T01:08:05.042Z,69.80
2018-05-26T01:11:07.485Z,70.30
2018-05-26T01:14:09.953Z,70.50
2018-05-26T01:17:12.397Z,69.60
2018-05-26T01:20:15.623Z,69.20
2018-05-26T01:23:18.075Z,69.20
2018-05-26T01:26:20.523Z,68.40
2018-05-26T01:29:22.991Z,67.50
2018-05-26T01:32:25.439Z,67.90
2018-05-26T01:35:27.901Z,67.20
2018-05-26T01:38:30.358Z,66.50
2018-05-26T01:41:33.571Z,66.70
2018-05-26T01:44:36.027Z,66.60
2018-05-26T01:47:39.245Z,66.20
2018-05-26T01:50:41.706Z,66.10
2018-05-26T01:53:44.941Z,65.60
2018-05-26T01:56:47.394Z,65.60
2018-05-26T01:59:49.854Z,65.60
2018-05-26T02:02:53.065Z,66.00
2018-05-26T02:05:55.517Z,66.10
2018-05-26T02:08:58.747Z,66.20
2018-05-26T02:12:01.189Z,66.10
2018-05-26T02:15:04.419Z,66.30
2018-05-26T02:18:06.868Z,66.20
2018-05-26T02:21:09.325Z,66.10
2018-05-26T02:24:11.850Z,66.40
2018-05-26T02:27:14.301Z,65.80
2018-05-26T02:30:16.760Z,65.80
2018-05-26T02:33:19.223Z,65.90
2018-05-26T02:36:21.710Z,66.10
2018-05-26T02:39:24.149Z,66.60
2018-05-26T02:42:26.594Z,66.30
2018-05-26T02:45:29.050Z,66.10
2018-05-26T02:48:31.506Z,66.40
2018-05-26T02:51:33.958Z,66.30
2018-05-26T02:54:36.410Z,66.20
2018-05-26T02:57:38.863Z,66.30
2018-05-26T03:00:42.086Z,66.00
2018-05-26T03:03:44.560Z,66.00
2018-05-26T03:06:52.778Z,65.90
2018-05-26T03:10:00.970Z,65.70
2018-05-26T03:13:09.169Z,65.70
2018-05-26T03:19:50.466Z,65.80
2018-05-26T03:22:53.685Z,66.70
2018-05-26T03:25:56.157Z,66.60
2018-05-26T03:28:58.607Z,66.20
2018-05-26T03:32:01.061Z,66.00
2018-05-26T03:35:03.531Z,65.70
2018-05-26T03:38:05.982Z,66.30
2018-05-26T03:41:08.451Z,66.20
2018-05-26T03:44:10.895Z,66.20
2018-05-26T03:47:14.125Z,66.40
2018-05-26T03:50:16.589Z,66.30
2018-05-26T03:53:19.034Z,66.20
2018-05-26T03:56:33.402Z,66.30
2018-05-26T03:59:47.169Z,67.30
2018-05-26T04:02:49.617Z,67.20
2018-05-26T04:05:52.134Z,67.80
2018-05-26T04:08:54.554Z,67.90
2018-05-26T04:11:57.021Z,67.80
2018-05-26T04:14:59.496Z,67.80
2018-05-26T04:18:01.952Z,67.70
2018-05-26T04:21:04.432Z,66.70
2018-05-26T04:24:06.878Z,66.60
2018-05-26T04:27:09.347Z,66.20
2018-05-26T04:30:12.575Z,66.00
2018-05-26T04:33:15.023Z,66.00
2018-05-26T04:36:17.485Z,65.90
2018-05-26T04:39:20.703Z,66.30
2018-05-26T04:42:23.161Z,66.30
2018-05-26T04:45:25.654Z,66.10
2018-05-26T04:48:28.151Z,65.50
2018-05-26T04:51:30.662Z,65.70
2018-05-26T04:54:33.143Z,66.00
2018-05-26T04:57:35.628Z,66.30
2018-05-26T05:00:38.126Z,66.30
2018-05-26T05:03:40.608Z,65.30
2018-05-26T05:06:43.114Z,64.90
2018-05-26T05:09:46.381Z,62.40
2018-05-26T05:12:48.881Z,62.30
2018-05-26T05:15:51.437Z,60.60
2018-05-26T05:18:53.928Z,59.10
2018-05-26T05:21:56.431Z,56.30
2018-05-26T05:24:58.894Z,52.20
2018-05-26T05:28:01.393Z,46.00
2018-05-26T05:31:03.876Z,41.00
2018-05-26T05:34:06.359Z,37.60
2018-05-26T05:37:08.841Z,34.90
2018-05-26T05:40:11.323Z,33.60
2018-05-26T05:43:13.789Z,32.30
2018-05-26T05:46:16.271Z,31.90
2018-05-26T05:49:18.754Z,33.10
2018-05-26T05:52:21.222Z,32.40
2018-05-26T05:55:23.670Z,31.40
2018-05-26T05:58:26.142Z,31.80
2018-05-26T06:01:28.608Z,30.20
2018-05-26T06:04:31.045Z,29.10
2018-05-26T06:07:34.269Z,27.70
2018-05-26T06:10:36.710Z,27.70
2018-05-26T06:13:39.213Z,26.40
2018-05-26T06:16:41.673Z,25.80
2018-05-26T06:19:44.886Z,26.90
2018-05-26T06:22:48.115Z,26.50
2018-05-26T06:25:50.559Z,26.40
2018-05-26T06:28:53.034Z,26.90
2018-05-26T06:31:55.499Z,25.90
2018-05-26T06:34:58.717Z,26.30
2018-05-26T06:38:01.190Z,26.30
2018-05-26T06:41:03.637Z,26.20
2018-05-26T06:44:06.862Z,26.20
2018-05-26T06:47:09.313Z,26.10
2018-05-26T06:50:11.782Z,25.20
2018-05-26T06:53:14.238Z,24.90
2018-05-26T06:56:16.814Z,25.00
2018-05-26T06:59:19.350Z,25.80
2018-05-26T07:02:22.562Z,25.60
2018-05-26T07:05:25.012Z,25.50
2018-05-26T07:08:27.474Z,26.00
2018-05-26T07:11:30.691Z,26.20
2018-05-26T07:14:33.150Z,26.10
2018-05-26T07:17:36.377Z,24.80
2018-05-26T07:20:38.843Z,24.70
2018-05-26T07:23:41.293Z,24.90
2018-05-26T07:26:44.535Z,26.50
2018-05-26T07:29:47.010Z,26.00
2018-05-26T07:32:49.485Z,24.80
2018-05-26T07:35:51.939Z,25.90
2018-05-26T07:38:54.421Z,25.20
2018-05-26T07:41:56.874Z,25.30
2018-05-26T07:45:00.093Z,27.30
2018-05-26T07:48:02.570Z,26.70
2018-05-26T07:51:05.037Z,26.50
2018-05-26T07:54:08.238Z,23.90
2018-05-26T07:57:10.704Z,23.90
2018-05-26T08:00:13.174Z,23.00
2018-05-26T08:03:15.607Z,23.80
2018-05-26T08:06:18.053Z,22.70
2018-05-26T08:09:20.524Z,24.50
2018-05-26T08:12:22.982Z,23.30
2018-05-26T08:15:26.194Z,23.60
2018-05-26T08:18:28.657Z,23.60
2018-05-26T08:21:31.100Z,24.20
2018-05-26T08:24:33.568Z,23.30
2018-05-26T08:27:39.655Z,24.20
2018-05-26T08:30:42.114Z,24.50
2018-05-26T08:33:45.357Z,26.40
2018-05-26T08:36:48.553Z,28.00
2018-05-26T08:39:51.012Z,28.00
2018-05-26T08:42:54.242Z,28.20
2018-05-26T08:45:56.689Z,28.20
2018-05-26T08:48:59.153Z,28.60
2018-05-26T08:55:10.369Z,28.00
2018-05-26T08:58:12.885Z,28.70
2018-05-26T09:01:15.326Z,29.20
2018-05-26T09:04:17.793Z,30.00
2018-05-26T09:07:20.999Z,29.00
2018-05-26T09:10:23.475Z,28.90
2018-05-26T09:13:25.925Z,30.30
2018-05-26T09:16:29.129Z,31.10
2018-05-26T09:19:32.361Z,31.80
2018-05-26T09:22:34.805Z,31.80
2018-05-26T09:25:37.284Z,31.40
2018-05-26T09:28:39.738Z,32.20
2018-05-26T09:31:42.181Z,31.90
2018-05-26T09:34:44.654Z,32.70
2018-05-26T09:37:47.099Z,33.20
2018-05-26T09:40:49.561Z,35.40
2018-05-26T09:43:52.793Z,34.80
2018-05-26T09:46:55.232Z,34.80
2018-05-26T09:49:58.455Z,35.80
2018-05-26T09:53:00.930Z,35.70
2018-05-26T09:56:03.419Z,37.20
2018-05-26T09:59:05.850Z,38.70
2018-05-26T10:02:09.061Z,39.10
2018-05-26T10:05:11.526Z,39.00
2018-05-26T10:08:14.800Z,37.50
2018-05-26T10:11:17.255Z,37.50
2018-05-26T10:14:19.715Z,38.00
2018-05-26T10:17:22.161Z,38.40
2018-05-26T10:20:24.622Z,39.80
2018-05-26T10:23:27.849Z,36.30
2018-05-26T10:26:30.296Z,36.30
2018-05-26T10:29:33.536Z,38.60
2018-05-26T10:32:35.994Z,38.50
2018-05-26T10:35:38.493Z,35.40
2018-05-26T10:38:40.901Z,35.20
2018-05-26T10:41:43.349Z,36.10
2018-05-26T10:44:45.818Z,36.50
2018-05-26T10:47:48.270Z,36.00
2018-05-26T10:50:50.734Z,35.50
2018-05-26T10:53:53.198Z,35.70
2018-05-26T10:56:56.414Z,35.50
2018-05-26T10:59:58.865Z,35.50
2018-05-26T11:03:02.083Z,33.40
2018-05-26T11:06:04.594Z,33.40
2018-05-26T11:09:07.053Z,34.00
2018-05-26T11:12:09.519Z,34.40
2018-05-26T11:15:11.969Z,34.70
2018-05-26T11:18:15.202Z,34.10
2018-05-26T11:21:17.670Z,34.00
2018-05-26T11:24:20.200Z,35.70
2018-05-26T11:27:22.601Z,35.60
2018-05-26T11:30:25.845Z,35.40
2018-05-26T11:33:28.274Z,35.40
2018-05-26T11:36:31.494Z,35.10
2018-05-26T11:39:33.962Z,35.00
2018-05-26T11:42:36.405Z,33.90
2018-05-26T11:45:38.873Z,34.50
2018-05-26T11:48:41.320Z,34.90
2018-05-26T11:51:43.802Z,34.80
2018-05-26T11:54:46.259Z,34.60
2018-05-26T11:57:48.750Z,33.30
2018-05-26T12:00:51.341Z,33.70
2018-05-26T12:03:53.780Z,34.20
2018-05-26T12:06:56.246Z,34.50
2018-05-26T12:09:58.735Z,35.10
2018-05-26T12:13:01.186Z,34.40
2018-05-26T12:16:04.422Z,36.60
2018-05-26T12:19:06.871Z,36.60
2018-05-26T12:22:09.390Z,36.30
2018-05-26T12:25:11.853Z,36.10
2018-05-26T12:28:14.296Z,35.50
2018-05-26T12:31:17.533Z,34.60
2018-05-26T12:34:19.988Z,34.60
2018-05-26T12:37:22.455Z,36.70
2018-05-26T12:40:24.908Z,35.10
2018-05-26T12:43:35.746Z,36.70
2018-05-26T12:46:38.222Z,36.20
2018-05-26T12:49:40.666Z,34.00
2018-05-26T12:52:43.129Z,33.20
2018-05-26T12:55:45.585Z,34.60
2018-05-26T12:58:49.497Z,34.80
2018-05-26T13:01:52.742Z,34.80
2018-05-26T13:04:55.173Z,34.70
2018-05-26T13:07:58.407Z,34.80
2018-05-26T13:11:00.895Z,34.80
2018-05-26T13:14:03.342Z,34.50
2018-05-26T13:17:05.797Z,34.30
2018-05-26T13:20:08.234Z,35.60
2018-05-26T13:23:10.702Z,35.80
2018-05-26T13:26:13.165Z,36.30
2018-05-26T13:29:15.605Z,35.60
2018-05-26T13:32:18.857Z,37.60
2018-05-26T13:35:21.306Z,37.60
2018-05-26T13:38:23.762Z,36.70
2018-05-26T13:41:26.977Z,36.70
2018-05-26T13:44:29.421Z,36.60
2018-05-26T13:47:32.663Z,36.30
2018-05-26T13:50:35.118Z,36.20
2018-05-26T13:53:38.400Z,35.80
2018-05-26T13:56:40.799Z,35.20
2018-05-26T13:59:43.242Z,35.40
2018-05-26T14:02:46.466Z,36.30
2018-05-26T14:05:48.927Z,36.30
2018-05-26T14:08:51.381Z,36.00
2018-05-26T14:11:53.849Z,36.50
2018-05-26T14:14:56.293Z,36.50
2018-05-26T14:17:58.762Z,36.50
2018-05-26T14:21:01.222Z,36.60
2018-05-26T14:24:03.681Z,36.40
2018-05-26T14:27:06.143Z,37.20
2018-05-26T14:30:08.585Z,36.80
2018-05-26T14:33:11.053Z,36.40
2018-05-26T14:36:13.494Z,37.30
2018-05-26T14:39:15.958Z,37.90
2018-05-26T14:42:19.206Z,37.20
2018-05-26T14:45:21.669Z,37.20
2018-05-26T14:48:24.138Z,37.80
2018-05-26T14:51:26.594Z,37.90
2018-05-26T14:54:29.817Z,38.20
2018-05-26T14:57:32.277Z,38.20
2018-05-26T15:00:34.717Z,38.60
2018-05-26T15:03:37.173Z,38.80
2018-05-26T15:06:39.634Z,38.70
2018-05-26T15:09:42.103Z,38.90
2018-05-26T15:12:44.684Z,38.70
2018-05-26T15:15:47.009Z,39.10
2018-05-26T15:18:50.237Z,39.00
2018-05-26T15:21:52.676Z,39.00
2018-05-26T15:24:55.911Z,38.80
2018-05-26T15:27:58.388Z,38.70
2018-05-26T15:31:00.817Z,39.80
2018-05-26T15:34:03.282Z,39.10
2018-05-26T15:37:05.726Z,39.60
2018-05-26T15:40:08.190Z,38.80
2018-05-26T15:43:10.661Z,37.90
2018-05-26T15:46:13.106Z,37.70
2018-05-26T15:49:15.562Z,37.00
2018-05-26T15:52:18.020Z,37.40
2018-05-26T15:55:20.500Z,37.20
2018-05-26T15:58:22.955Z,36.90
2018-05-26T16:01:25.406Z,36.70
2018-05-26T16:04:28.638Z,36.50
2018-05-26T16:07:31.083Z,36.50
2018-05-26T16:10:34.337Z,36.40
2018-05-26T16:13:36.810Z,36.30
2018-05-26T16:16:39.254Z,36.60
2018-05-26T16:19:41.705Z,39.60
2018-05-26T16:22:44.170Z,41.50
2018-05-26T16:25:47.374Z,42.80
2018-05-26T16:28:49.831Z,42.70
2018-05-26T16:31:52.283Z,41.90
2018-05-26T16:34:54.742Z,40.80
2018-05-26T16:37:57.229Z,42.00
2018-05-26T16:40:59.685Z,41.70
2018-05-26T16:44:02.137Z,41.00
2018-05-26T16:47:04.592Z,41.40
2018-05-26T16:50:07.058Z,41.00
2018-05-26T16:53:09.514Z,41.50
2018-05-26T16:56:11.969Z,41.30
2018-05-26T16:59:14.433Z,41.40
2018-05-26T17:02:16.889Z,40.70
2018-05-26T17:05:20.121Z,41.40
2018-05-26T17:08:22.590Z,41.30
2018-05-26T17:11:25.042Z,41.50
2018-05-26T17:14:28.274Z,42.10
2018-05-26T17:17:30.743Z,42.80
2018-05-26T17:20:33.197Z,42.20
2018-05-26T17:23:35.668Z,42.70
2018-05-26T17:26:38.110Z,42.70
2018-05-26T17:29:40.581Z,42.70
2018-05-26T17:32:43.034Z,42.70
2018-05-26T17:35:45.502Z,42.90
2018-05-26T17:38:47.980Z,43.80
2018-05-26T17:41:50.421Z,43.70
2018-05-26T17:44:53.659Z,43.40
2018-05-26T17:47:56.120Z,43.40
2018-05-26T17:50:58.577Z,44.10
2018-05-26T17:54:01.805Z,44.30
2018-05-26T17:57:04.257Z,44.30
2018-05-26T18:00:06.711Z,45.20
2018-05-26T18:03:09.980Z,46.20
2018-05-26T18:06:12.388Z,46.20
2018-05-26T18:09:15.634Z,46.70
2018-05-26T18:12:18.077Z,46.70
2018-05-26T18:15:20.536Z,46.90
2018-05-26T18:18:23.749Z,47.70
2018-05-26T18:21:26.210Z,47.70
2018-05-26T18:24:29.460Z,47.70
2018-05-26T18:27:31.901Z,47.70
2018-05-26T18:30:34.372Z,48.10
2018-05-26T18:33:36.823Z,48.00
2018-05-26T18:36:40.050Z,48.10
2018-05-26T18:39:42.524Z,48.10
2018-05-26T18:42:44.961Z,48.30
2018-05-26T18:45:47.431Z,48.60
2018-05-26T18:48:49.884Z,48.80
2018-05-26T18:51:52.344Z,47.70
2018-05-26T18:54:54.810Z,47.80
2018-05-26T18:57:57.264Z,47.50
2018-05-26T19:01:00.489Z,47.60
2018-05-26T19:04:02.933Z,47.60
2018-05-26T19:07:05.398Z,47.30
2018-05-26T19:10:07.857Z,47.30
2018-05-26T19:13:10.306Z,48.10
2018-05-26T19:16:12.785Z,48.10
2018-05-26T19:19:15.238Z,48.00
2018-05-26T19:22:17.715Z,48.00
2018-05-26T19:25:20.187Z,48.30
2018-05-26T19:28:22.645Z,48.20
2018-05-26T19:31:25.870Z,49.10
2018-05-26T19:34:28.334Z,49.10
2018-05-26T19:37:30.804Z,49.80
2018-05-26T19:40:33.253Z,50.20
2018-05-26T19:43:36.486Z,50.70
2018-05-26T19:46:38.962Z,50.70
2018-05-26T19:49:41.400Z,50.80
2018-05-26T19:52:43.874Z,51.10
2018-05-26T19:55:46.330Z,51.40
2018-05-26T19:58:49.605Z,51.70
2018-05-26T20:01:52.094Z,52.00
2018-05-26T20:04:54.555Z,52.00
2018-05-26T20:07:57.018Z,51.90
2018-05-26T20:10:59.473Z,51.80
2018-05-26T20:14:02.693Z,51.40
2018-05-26T20:17:05.145Z,51.40
2018-05-26T20:20:08.362Z,51.90
2018-05-26T20:23:10.842Z,51.90
2018-05-26T20:26:13.302Z,51.60
2018-05-26T20:29:15.741Z,51.80
2018-05-26T20:32:18.217Z,52.30
2018-05-26T20:35:20.675Z,53.00
2018-05-26T20:38:23.137Z,53.10
2018-05-26T20:41:25.595Z,53.50
2018-05-26T20:44:28.046Z,53.30
2018-05-26T20:47:31.270Z,53.40
2018-05-26T20:50:33.715Z,52.70
2018-05-26T20:53:36.177Z,52.70
2018-05-26T20:56:38.645Z,52.70
2018-05-26T20:59:41.089Z,53.20
2018-05-26T21:02:43.555Z,53.60
2018-05-26T21:05:46.001Z,53.80
2018-05-26T21:08:49.227Z,54.00
2018-05-26T21:11:51.677Z,54.00
2018-05-26T21:14:54.894Z,54.20
2018-05-26T21:17:57.371Z,54.20
2018-05-26T21:20:59.829Z,54.50
2018-05-26T21:24:03.060Z,54.40
2018-05-26T21:27:05.509Z,54.30
2018-05-26T21:30:07.970Z,54.00
2018-05-26T21:33:11.197Z,54.60
2018-05-26T21:36:13.662Z,54.60
2018-05-26T21:39:16.131Z,54.60
2018-05-26T21:42:19.342Z,54.80
2018-05-26T21:45:21.794Z,54.80
2018-05-26T21:48:25.022Z,54.80
2018-05-26T21:51:27.469Z,54.70
2018-05-26T21:54:30.709Z,55.00
2018-05-26T21:57:33.166Z,55.00
2018-05-26T22:00:35.625Z,55.20
2018-05-26T22:03:38.085Z,55.00
2018-05-26T22:06:41.318Z,55.00
2018-05-26T22:09:43.785Z,54.90
2018-05-26T22:12:46.248Z,55.00
2018-05-26T22:15:48.693Z,55.20
2018-05-26T22:18:51.149Z,55.50
2018-05-26T22:21:53.622Z,55.70
2018-05-26T22:24:56.085Z,55.60
2018-05-26T22:27:58.554Z,55.70
2018-05-26T22:31:00.999Z,55.70
2018-05-26T22:34:04.227Z,55.60
2018-05-26T22:37:06.673Z,56.20
2018-05-26T22:40:09.137Z,55.80
2018-05-26T22:43:12.359Z,56.40
2018-05-26T22:46:14.810Z,55.80
2018-05-26T22:49:18.029Z,55.20
2018-05-26T22:52:20.485Z,55.10
2018-05-26T22:55:23.718Z,55.20
2018-05-26T22:58:26.176Z,55.20
2018-05-26T23:01:28.625Z,55.30
2018-05-26T23:04:31.857Z,55.70
2018-05-26T23:07:34.331Z,55.70
2018-05-26T23:10:36.777Z,56.00
2018-05-26T23:13:40.007Z,56.90
2018-05-26T23:16:42.454Z,56.90
2018-05-26T23:19:45.678Z,57.30
2018-05-26T23:22:48.134Z,57.20
2018-05-26T23:25:50.586Z,56.90
2018-05-26T23:28:53.052Z,57.10
2018-05-26T23:31:55.492Z,57.40
2018-05-26T23:34:57.949Z,57.50
2018-05-26T23:38:00.410Z,57.80
2018-05-26T23:41:03.634Z,58.00
2018-05-26T23:44:06.104Z,58.00
2018-05-26T23:47:08.554Z,58.20
2018-05-26T23:50:11.793Z,58.00
2018-05-26T23:53:14.248Z,58.00
2018-05-26T23:56:16.696Z,58.30
2018-05-26T23:59:19.925Z,58.20
